createdAt,value
2023-01-04T00:02:23.509Z,102910.09
2023-01-04T00:04:50.502Z,102908.06
2023-01-04T00:07:18.854Z,102902.81
2023-01-04T00:09:46.004Z,102906.34
2023-01-04T00:12:13.012Z,102906.41
2023-01-04T00:17:24.223Z,102895.66
2023-01-04T00:19:51.076Z,102898.34
2023-01-04T00:22:18.121Z,102895.72
2023-01-04T00:24:45.579Z,102899.31
2023-01-04T00:27:12.425Z,102896.88
2023-01-04T00:29:39.423Z,102888.69
2023-01-04T00:32:06.342Z,102883.69
2023-01-04T00:34:33.217Z,102890.53
2023-01-04T00:37:00.757Z,102890.53
2023-01-04T00:39:29.428Z,102887.63
2023-01-04T00:42:05.351Z,102877.19
2023-01-04T00:44:34.549Z,102877.75
2023-01-04T00:47:02.960Z,102880.78
2023-01-04T00:49:30.826Z,102881.81
2023-01-04T00:51:58.150Z,102882.22
2023-01-04T00:54:25.374Z,102877.81
2023-01-04T00:56:52.866Z,102873.84
2023-01-04T01:02:06.581Z,102878.09
2023-01-04T01:04:34.218Z,102873.69
2023-01-04T01:07:01.092Z,102872.03
2023-01-04T01:09:27.960Z,102875.56
2023-01-04T01:11:55.258Z,102872.09
2023-01-04T01:14:25.677Z,102877.16
2023-01-04T01:16:56.548Z,102877.00
2023-01-04T01:19:26.243Z,102878.59
2023-01-04T01:21:53.154Z,102879.63
2023-01-04T01:24:20.897Z,102891.41
2023-01-04T01:26:47.885Z,102892.34
2023-01-04T01:29:15.149Z,102886.19
2023-01-04T01:32:00.837Z,102878.88
2023-01-04T01:34:28.045Z,102887.19
2023-01-04T01:36:54.976Z,102893.22
2023-01-04T01:39:21.996Z,102889.56
2023-01-04T01:41:48.929Z,102892.41
2023-01-04T01:44:44.231Z,102895.34
2023-01-04T01:47:22.862Z,102890.84
2023-01-04T01:49:52.971Z,102894.00
2023-01-04T01:52:26.908Z,102892.28
2023-01-04T01:55:02.922Z,102894.25
2023-01-04T01:57:34.427Z,102889.69
2023-01-04T02:00:09.112Z,102897.72
2023-01-04T02:02:53.880Z,102892.38
2023-01-04T02:05:22.133Z,102896.06
2023-01-04T02:07:50.197Z,102899.72
2023-01-04T02:10:17.740Z,102898.84
2023-01-04T02:12:46.462Z,102900.59
2023-01-04T02:18:12.015Z,102910.56
2023-01-04T02:20:52.222Z,102910.56
2023-01-04T02:23:22.049Z,102914.25
2023-01-04T02:26:10.967Z,102911.84
2023-01-04T02:28:49.671Z,102910.81
2023-01-04T02:31:35.272Z,102915.50
2023-01-04T02:34:08.865Z,102916.44
2023-01-04T02:37:06.175Z,102909.34
2023-01-04T02:39:42.037Z,102913.84
2023-01-04T02:42:58.589Z,102920.03
2023-01-04T02:45:32.768Z,102915.09
2023-01-04T02:48:27.419Z,102912.34
2023-01-04T02:53:43.088Z,102904.53
2023-01-04T02:56:35.531Z,102901.84
2023-01-04T02:59:28.188Z,102900.25
2023-01-04T03:02:48.316Z,102900.19
2023-01-04T03:06:01.895Z,102894.13
2023-01-04T03:08:41.532Z,102887.75
2023-01-04T03:11:32.775Z,102885.09
2023-01-04T03:14:30.793Z,102881.44
2023-01-04T03:16:55.672Z,102883.16
2023-01-04T03:19:44.410Z,102883.28
2023-01-04T03:22:34.255Z,102875.22
2023-01-04T03:25:21.837Z,102876.19
2023-01-04T03:28:17.114Z,102878.44
2023-01-04T03:34:16.570Z,102868.84
2023-01-04T03:37:05.374Z,102868.03
2023-01-04T03:40:03.052Z,102869.78
2023-01-04T03:43:00.882Z,102868.16
2023-01-04T03:45:51.664Z,102864.81
2023-01-04T03:48:33.620Z,102870.28
2023-01-04T03:51:15.043Z,102864.94
2023-01-04T03:53:57.188Z,102863.19
2023-01-04T03:56:26.782Z,102863.19
2023-01-04T03:58:55.022Z,102863.19
2023-01-04T04:01:26.346Z,102867.56
2023-01-04T04:04:12.352Z,102870.16
2023-01-04T04:06:58.086Z,102864.25
2023-01-04T04:09:25.328Z,102870.53
2023-01-04T04:12:11.654Z,102870.53
2023-01-04T04:17:41.344Z,102874.16
2023-01-04T04:20:08.808Z,102871.53
2023-01-04T04:22:35.722Z,102871.53
2023-01-04T04:25:02.640Z,102876.94
2023-01-04T04:27:29.521Z,102873.28
2023-01-04T04:29:56.486Z,102877.25
2023-01-04T04:32:23.540Z,102870.22
2023-01-04T04:34:50.502Z,102872.13
2023-01-04T04:37:17.471Z,102871.16
2023-01-04T04:39:44.419Z,102866.78
2023-01-04T04:42:11.459Z,102868.31
2023-01-04T04:44:38.374Z,102875.47
2023-01-04T04:47:05.321Z,102878.38
2023-01-04T04:49:50.605Z,102879.34
2023-01-04T04:52:36.268Z,102873.28
2023-01-04T04:55:03.226Z,102868.06
2023-01-04T04:57:30.085Z,102877.00
2023-01-04T05:00:00.491Z,102871.66
2023-01-04T05:06:02.177Z,102880.72
2023-01-04T05:08:29.201Z,102889.88
2023-01-04T05:10:56.045Z,102881.97
2023-01-04T05:13:23.180Z,102887.31
2023-01-04T05:16:10.239Z,102880.19
2023-01-04T05:18:37.265Z,102883.63
2023-01-04T05:21:04.256Z,102882.84
2023-01-04T05:23:31.167Z,102884.56
2023-01-04T05:26:18.347Z,102882.03
2023-01-04T05:28:51.494Z,102890.25
2023-01-04T05:31:20.794Z,102889.66
2023-01-04T05:33:47.658Z,102887.81
2023-01-04T05:36:14.628Z,102893.16
2023-01-04T05:38:41.553Z,102888.78
2023-01-04T05:41:28.542Z,102901.94
2023-01-04T05:43:55.733Z,102901.06
2023-01-04T05:46:22.933Z,102901.06
2023-01-04T05:48:50.045Z,102900.00
2023-01-04T05:51:17.294Z,102911.50
2023-01-04T05:53:44.182Z,102913.47
2023-01-04T05:56:29.524Z,102909.69
2023-01-04T05:58:56.426Z,102915.19
2023-01-04T06:01:23.347Z,102909.41
2023-01-04T06:03:50.495Z,102909.41
2023-01-04T06:06:36.346Z,102918.19
2023-01-04T06:09:03.912Z,102913.91
2023-01-04T06:11:30.798Z,102925.53
2023-01-04T06:13:57.830Z,102918.56
2023-01-04T06:16:25.164Z,102924.66
2023-01-04T06:18:52.273Z,102920.94
2023-01-04T06:21:19.210Z,102926.50
2023-01-04T06:23:46.148Z,102924.59
2023-01-04T06:26:13.635Z,102928.34
2023-01-04T06:28:41.367Z,102936.44
2023-01-04T06:31:10.481Z,102931.97
2023-01-04T06:33:37.809Z,102938.41
2023-01-04T06:36:05.803Z,102938.41
2023-01-04T06:38:51.363Z,102941.09
2023-01-04T06:41:18.381Z,102940.16
2023-01-04T06:43:45.583Z,102942.00
2023-01-04T06:46:13.344Z,102940.25
2023-01-04T06:48:40.301Z,102949.19
2023-01-04T06:51:07.230Z,102956.38
2023-01-04T06:53:34.083Z,102955.53
2023-01-04T06:58:45.674Z,102959.22
2023-01-04T07:01:31.488Z,102957.25
2023-01-04T07:04:16.967Z,102957.31
2023-01-04T07:07:02.478Z,102958.34
2023-01-04T07:09:29.363Z,102958.22
2023-01-04T07:12:15.005Z,102959.06
2023-01-04T07:14:45.959Z,102964.63
2023-01-04T07:17:16.856Z,102964.53
2023-01-04T07:19:43.895Z,102967.28
2023-01-04T07:22:10.839Z,102963.09
2023-01-04T07:24:37.856Z,102963.69
2023-01-04T07:27:04.818Z,102960.81
2023-01-04T07:29:31.906Z,102968.81
2023-01-04T07:31:58.821Z,102974.16
2023-01-04T07:34:26.268Z,102970.22
2023-01-04T07:36:53.519Z,102973.56
2023-01-04T07:39:21.738Z,102984.06
2023-01-04T07:42:07.644Z,102980.59
2023-01-04T07:44:56.639Z,102981.19
2023-01-04T07:47:24.129Z,102987.91
2023-01-04T07:49:51.128Z,102991.00
2023-01-04T07:52:18.683Z,102996.44
2023-01-04T07:54:45.805Z,102991.00
2023-01-04T07:57:12.671Z,102996.72
2023-01-04T07:59:40.653Z,102989.78
2023-01-04T08:02:10.861Z,102999.78
2023-01-04T08:04:37.891Z,103004.56
2023-01-04T08:07:05.431Z,103017.28
2023-01-04T08:09:39.080Z,103013.91
2023-01-04T08:12:24.944Z,103017.50
2023-01-04T08:14:51.873Z,103017.94
2023-01-04T08:17:26.348Z,103029.59
2023-01-04T08:19:53.328Z,103027.31
2023-01-04T08:22:20.259Z,103025.00
2023-01-04T08:24:47.168Z,103029.31
2023-01-04T08:27:14.132Z,103033.63
2023-01-04T08:29:41.018Z,103036.03
2023-01-04T08:32:07.895Z,103030.50
2023-01-04T08:34:35.031Z,103042.84
2023-01-04T08:39:49.295Z,103055.16
2023-01-04T08:42:28.630Z,103044.94
2023-01-04T08:44:59.803Z,103043.59
2023-01-04T08:47:28.548Z,103043.94
2023-01-04T08:49:55.728Z,103044.34
2023-01-04T08:52:24.287Z,103047.34
2023-01-04T08:54:51.775Z,103053.97
2023-01-04T08:57:19.381Z,103053.72
2023-01-04T08:59:50.646Z,103059.63
2023-01-04T09:02:27.020Z,103052.75
2023-01-04T09:04:59.794Z,103050.91
2023-01-04T09:07:29.315Z,103051.78
2023-01-04T09:09:57.364Z,103060.16
2023-01-04T09:12:24.636Z,103050.94
2023-01-04T09:14:51.478Z,103058.09
2023-01-04T09:17:18.826Z,103060.53
2023-01-04T09:19:45.885Z,103057.31
2023-01-04T09:22:12.777Z,103063.91
2023-01-04T09:24:39.696Z,103063.59
2023-01-04T09:27:06.902Z,103084.00
2023-01-04T09:29:33.803Z,103070.50
2023-01-04T09:32:01.142Z,103063.91
2023-01-04T09:34:28.216Z,103067.06
2023-01-04T09:36:55.156Z,103077.78
2023-01-04T09:39:23.924Z,103067.22
2023-01-04T09:42:05.714Z,103070.66
2023-01-04T09:45:21.886Z,103081.22
2023-01-04T09:47:41.947Z,103077.75
2023-01-04T09:50:36.855Z,103074.09
2023-01-04T09:53:47.967Z,103076.44
2023-01-04T09:56:29.407Z,103073.72
2023-01-04T09:58:58.600Z,103079.03
2023-01-04T10:01:53.837Z,103074.72
2023-01-04T10:04:27.732Z,103072.84
2023-01-04T10:06:59.435Z,103074.91
2023-01-04T10:09:29.844Z,103073.06
2023-01-04T10:12:08.573Z,103072.13
2023-01-04T10:14:35.526Z,103071.03
2023-01-04T10:17:44.608Z,103067.59
2023-01-04T10:24:17.650Z,103062.63
2023-01-04T10:26:50.718Z,103066.09
2023-01-04T10:29:38.580Z,103058.78
2023-01-04T10:32:12.383Z,103060.41
2023-01-04T10:37:35.744Z,103065.22
2023-01-04T10:40:02.754Z,103059.84
2023-01-04T10:42:41.048Z,103059.44
2023-01-04T10:45:13.854Z,103055.97
2023-01-04T10:47:53.982Z,103055.78
2023-01-04T10:51:05.211Z,103045.38
2023-01-04T10:53:57.083Z,103046.25
2023-01-04T10:56:51.783Z,103047.31
2023-01-04T10:59:38.835Z,103038.72
2023-01-04T11:02:41.790Z,103028.66
2023-01-04T11:05:21.006Z,103035.69
2023-01-04T11:07:50.553Z,103041.09
2023-01-04T11:10:28.986Z,103033.56
2023-01-04T11:12:56.191Z,103029.91
2023-01-04T11:15:23.200Z,103030.53
2023-01-04T11:17:52.127Z,103015.94
2023-01-04T11:20:21.726Z,103021.16
2023-01-04T11:23:05.396Z,103017.47
2023-01-04T11:25:39.118Z,103025.56
2023-01-04T11:28:18.319Z,103010.03
2023-01-04T11:30:56.492Z,103005.50
2023-01-04T11:33:25.180Z,103002.94
2023-01-04T11:35:59.591Z,102999.28
2023-01-04T11:38:30.780Z,103000.16
2023-01-04T11:41:05.611Z,103000.38
2023-01-04T11:43:38.215Z,102984.59
2023-01-04T11:46:07.167Z,102990.00
2023-01-04T11:48:42.983Z,102991.31
2023-01-04T11:51:26.498Z,102981.38
2023-01-04T11:54:01.962Z,102978.53
2023-01-04T11:56:30.490Z,102986.53
2023-01-04T11:59:15.466Z,102980.03
2023-01-04T12:01:47.416Z,102980.28
2023-01-04T12:04:20.535Z,102969.25
2023-01-04T12:07:00.241Z,102963.84
2023-01-04T12:09:29.865Z,102959.97
2023-01-04T12:12:00.104Z,102959.22
2023-01-04T12:14:35.344Z,102954.56
2023-01-04T12:17:14.257Z,102956.50
2023-01-04T12:19:42.466Z,102950.47
2023-01-04T12:22:38.373Z,102939.66
2023-01-04T12:25:20.533Z,102943.44
2023-01-04T12:27:49.537Z,102943.56
2023-01-04T12:30:44.465Z,102934.59
2023-01-04T12:33:30.018Z,102933.38
2023-01-04T12:36:03.097Z,102924.09
2023-01-04T12:39:07.080Z,102918.69
2023-01-04T12:41:33.950Z,102927.13
2023-01-04T12:44:39.899Z,102916.09
2023-01-04T12:47:37.432Z,102908.97
2023-01-04T12:50:19.467Z,102907.88
2023-01-04T12:55:44.105Z,102899.00
2023-01-04T12:58:58.169Z,102895.34
2023-01-04T13:01:38.041Z,102895.34
2023-01-04T13:04:27.759Z,102891.66
2023-01-04T13:07:11.736Z,102881.72
2023-01-04T13:09:51.665Z,102878.41
2023-01-04T13:12:53.003Z,102878.94
2023-01-04T13:15:29.032Z,102870.81
2023-01-04T13:17:58.251Z,102870.81
2023-01-04T13:20:29.070Z,102867.03
2023-01-04T13:22:59.683Z,102861.00
2023-01-04T13:25:26.911Z,102861.84
2023-01-04T13:28:03.645Z,102864.44
2023-01-04T13:30:38.857Z,102859.69
2023-01-04T13:33:28.112Z,102850.19
2023-01-04T13:36:12.879Z,102853.47
2023-01-04T13:38:41.635Z,102855.63
2023-01-04T13:41:24.764Z,102854.22
2023-01-04T13:44:04.753Z,102855.16
2023-01-04T13:46:32.528Z,102857.28
2023-01-04T13:49:02.763Z,102852.84
2023-01-04T13:51:38.237Z,102850.94
2023-01-04T13:54:31.585Z,102843.31
2023-01-04T13:57:09.534Z,102852.59
2023-01-04T13:59:37.808Z,102848.13
2023-01-04T14:02:04.988Z,102842.75
2023-01-04T14:04:51.094Z,102840.63
2023-01-04T14:07:27.192Z,102834.63
2023-01-04T14:10:07.890Z,102834.00
2023-01-04T14:12:34.981Z,102833.38
2023-01-04T14:15:25.855Z,102837.59
2023-01-04T14:17:59.273Z,102831.03
2023-01-04T14:20:26.355Z,102830.84
2023-01-04T14:22:57.613Z,102828.91
2023-01-04T14:25:31.323Z,102833.00
2023-01-04T14:28:18.207Z,102830.44
2023-01-04T14:30:52.803Z,102831.59
2023-01-04T14:33:31.212Z,102834.72
2023-01-04T14:36:27.219Z,102838.38
2023-01-04T14:39:06.899Z,102833.22
2023-01-04T14:41:41.065Z,102835.34
2023-01-04T14:44:15.273Z,102840.03
2023-01-04T14:46:47.153Z,102835.75
2023-01-04T14:49:15.176Z,102831.63
2023-01-04T14:51:48.831Z,102838.84
2023-01-04T14:54:24.544Z,102840.00
2023-01-04T14:56:54.046Z,102840.00
2023-01-04T14:59:24.069Z,102839.13
2023-01-04T15:01:53.700Z,102839.13
2023-01-04T15:04:21.239Z,102838.47
2023-01-04T15:06:55.066Z,102836.53
2023-01-04T15:09:22.268Z,102840.63
2023-01-04T15:11:49.347Z,102841.78
2023-01-04T15:14:16.938Z,102840.03
2023-01-04T15:16:44.110Z,102839.28
2023-01-04T15:19:11.258Z,102844.66
2023-01-04T15:21:41.343Z,102842.19
2023-01-04T15:24:11.540Z,102841.41
2023-01-04T15:26:39.842Z,102840.09
2023-01-04T15:29:08.621Z,102839.00
2023-01-04T15:31:40.372Z,102834.69
2023-01-04T15:34:10.269Z,102842.69
2023-01-04T15:36:41.484Z,102842.78
2023-01-04T15:39:13.215Z,102838.25
2023-01-04T15:41:59.088Z,102840.94
2023-01-04T15:47:10.423Z,102842.41
2023-01-04T15:49:56.196Z,102837.22
2023-01-04T15:52:23.394Z,102835.88
2023-01-04T15:54:50.215Z,102832.59
2023-01-04T15:57:17.354Z,102837.09
2023-01-04T15:59:46.996Z,102835.28
2023-01-04T16:02:15.290Z,102838.16
2023-01-04T16:04:42.648Z,102837.19
2023-01-04T16:07:09.585Z,102838.16
2023-01-04T16:09:37.974Z,102846.22
2023-01-04T16:12:23.967Z,102842.78
2023-01-04T16:14:51.081Z,102839.31
2023-01-04T16:17:26.027Z,102840.25
2023-01-04T16:19:53.685Z,102841.41
2023-01-04T16:22:20.714Z,102837.41
2023-01-04T16:27:36.031Z,102841.72
2023-01-04T16:30:04.290Z,102846.81
2023-01-04T16:32:50.708Z,102841.63
2023-01-04T16:38:20.996Z,102838.00
2023-01-04T16:41:00.391Z,102838.34
2023-01-04T16:43:28.998Z,102848.16
2023-01-04T16:46:11.043Z,102848.16
2023-01-04T16:48:41.294Z,102849.13
2023-01-04T16:51:08.754Z,102852.97
2023-01-04T16:53:36.844Z,102852.97
2023-01-04T16:56:07.508Z,102844.09
2023-01-04T16:58:35.051Z,102841.72
2023-01-04T17:01:18.231Z,102850.66
2023-01-04T17:03:47.005Z,102853.53
2023-01-04T17:06:17.075Z,102846.41
2023-01-04T17:08:45.457Z,102845.56
2023-01-04T17:12:27.139Z,102843.72
2023-01-04T17:14:28.659Z,102840.53
2023-01-04T17:16:56.533Z,102840.38
2023-01-04T17:19:23.615Z,102830.44
2023-01-04T17:21:51.055Z,102837.75
2023-01-04T17:24:18.342Z,102834.28
2023-01-04T17:26:46.046Z,102834.28
2023-01-04T17:29:14.998Z,102827.97
2023-01-04T17:31:44.076Z,102831.22
2023-01-04T17:34:20.080Z,102832.16
2023-01-04T17:36:49.517Z,102837.47
2023-01-04T17:39:16.904Z,102832.16
2023-01-04T17:41:43.907Z,102832.38
2023-01-04T17:44:11.002Z,102830.81
2023-01-04T17:46:57.262Z,102829.44
2023-01-04T17:52:10.299Z,102832.69
2023-01-04T17:54:39.794Z,102829.06
2023-01-04T17:57:06.658Z,102827.25
2023-01-04T17:59:33.885Z,102833.56
2023-01-04T18:02:00.895Z,102835.59
2023-01-04T18:09:43.775Z,102842.94
2023-01-04T18:12:10.682Z,102843.09
2023-01-04T18:14:37.661Z,102844.16
2023-01-04T18:17:08.422Z,102847.81
2023-01-04T18:19:36.258Z,102845.38
2023-01-04T18:22:29.298Z,102844.00
2023-01-04T18:25:04.599Z,102850.44
2023-01-04T18:30:23.440Z,102851.59
2023-01-04T18:32:53.112Z,102854.25
2023-01-04T18:35:26.513Z,102848.38
2023-01-04T18:37:53.671Z,102852.34
2023-01-04T18:40:20.773Z,102847.16
2023-01-04T18:42:51.604Z,102851.69
2023-01-04T18:45:19.484Z,102862.41
2023-01-04T18:47:47.612Z,102852.72
2023-01-04T18:50:16.607Z,102858.88
2023-01-04T18:52:49.163Z,102861.06
2023-01-04T18:55:16.486Z,102862.94
2023-01-04T18:57:43.364Z,102868.41
2023-01-04T19:00:11.056Z,102866.09
2023-01-04T19:02:38.467Z,102866.94
2023-01-04T19:05:05.734Z,102872.31
2023-01-04T19:07:32.622Z,102869.78
2023-01-04T19:09:59.512Z,102872.66
2023-01-04T19:12:26.411Z,102870.25
2023-01-04T19:14:53.450Z,102865.75
2023-01-04T19:17:24.558Z,102859.50
2023-01-04T19:19:51.799Z,102864.19
2023-01-04T19:22:18.670Z,102871.25
2023-01-04T19:24:45.583Z,102868.94
2023-01-04T19:27:12.765Z,102876.19
2023-01-04T19:29:39.804Z,102875.25
2023-01-04T19:32:06.776Z,102874.31
2023-01-04T19:34:34.307Z,102877.34
2023-01-04T19:37:01.369Z,102871.97
2023-01-04T19:39:28.334Z,102877.84
2023-01-04T19:41:55.557Z,102875.91
2023-01-04T19:44:22.864Z,102877.66
2023-01-04T19:46:49.889Z,102881.28
2023-01-04T19:49:17.537Z,102879.91
2023-01-04T19:51:46.481Z,102884.59
2023-01-04T19:54:14.381Z,102883.53
2023-01-04T19:56:41.656Z,102883.88
2023-01-04T20:01:54.182Z,102884.25
2023-01-04T20:04:21.639Z,102886.25
2023-01-04T20:09:34.572Z,102888.31
2023-01-04T20:12:01.967Z,102886.66
2023-01-04T20:14:28.921Z,102884.13
2023-01-04T20:16:55.952Z,102884.91
2023-01-04T20:19:23.037Z,102892.13
2023-01-04T20:21:49.923Z,102888.09
2023-01-04T20:24:16.898Z,102889.75
2023-01-04T20:26:43.955Z,102890.69
2023-01-04T20:29:10.863Z,102889.66
2023-01-04T20:31:40.948Z,102894.31
2023-01-04T20:34:12.236Z,102900.63
2023-01-04T20:36:39.776Z,102903.66
2023-01-04T20:39:07.349Z,102905.53
2023-01-04T20:41:34.368Z,102900.00
2023-01-04T20:44:02.604Z,102901.91
2023-01-04T20:46:34.292Z,102901.03
2023-01-04T20:49:02.548Z,102904.59
2023-01-04T20:51:30.659Z,102904.59
2023-01-04T20:54:01.260Z,102904.84
2023-01-04T20:57:31.003Z,102904.13
2023-01-04T20:59:56.135Z,102900.66
2023-01-04T21:02:23.161Z,102897.53
2023-01-04T21:05:40.313Z,102909.81
2023-01-04T21:08:07.993Z,102899.56
2023-01-04T21:10:36.209Z,102903.03
2023-01-04T21:13:03.961Z,102907.38
2023-01-04T21:15:31.011Z,102901.13
2023-01-04T21:17:58.851Z,102912.03
2023-01-04T21:20:26.244Z,102905.06
2023-01-04T21:22:53.401Z,102912.03
2023-01-04T21:25:20.671Z,102908.63
2023-01-04T21:27:47.687Z,102912.34
2023-01-04T21:33:01.874Z,102901.34
2023-01-04T21:35:29.153Z,102910.91
2023-01-04T21:37:56.085Z,102910.28
2023-01-04T21:40:23.227Z,102909.34
2023-01-04T21:42:50.122Z,102910.28
2023-01-04T21:45:21.903Z,102897.34
2023-01-04T21:47:50.399Z,102893.25
2023-01-04T21:50:18.695Z,102897.50
2023-01-04T21:52:45.955Z,102897.50
2023-01-04T21:55:13.309Z,102892.16
2023-01-04T21:57:43.630Z,102885.34
2023-01-04T22:04:14.079Z,102890.22
2023-01-04T22:06:42.242Z,102889.44
2023-01-04T22:09:11.138Z,102891.97
2023-01-04T22:11:40.747Z,102887.56
2023-01-04T22:14:07.818Z,102889.34
2023-01-04T22:16:35.491Z,102893.06
2023-01-04T22:19:02.383Z,102889.66
2023-01-04T22:21:32.837Z,102884.88
2023-01-04T22:24:00.202Z,102887.72
2023-01-04T22:26:27.167Z,102895.41
2023-01-04T22:28:54.185Z,102894.78
2023-01-04T22:31:21.166Z,102897.56
2023-01-04T22:33:48.122Z,102881.50
2023-01-04T22:36:22.457Z,102895.03
2023-01-04T22:38:51.618Z,102890.47
2023-01-04T22:41:21.475Z,102896.69
2023-01-04T22:43:54.291Z,102896.28
2023-01-04T22:46:22.953Z,102899.91
2023-01-04T22:48:50.183Z,102904.53
2023-01-04T22:51:21.214Z,102894.69
2023-01-04T22:53:48.745Z,102891.22
2023-01-04T22:56:41.603Z,102894.81
2023-01-04T22:59:12.041Z,102893.25
2023-01-04T23:01:42.508Z,102890.94
2023-01-04T23:04:10.653Z,102895.16
2023-01-04T23:06:38.117Z,102897.00
2023-01-04T23:09:08.140Z,102891.50
2023-01-04T23:11:37.507Z,102885.72
2023-01-04T23:14:06.908Z,102886.59
2023-01-04T23:16:34.342Z,102879.88
2023-01-04T23:19:02.168Z,102881.84
2023-01-04T23:21:30.085Z,102879.22
2023-01-04T23:23:57.101Z,102883.75
2023-01-04T23:26:26.169Z,102876.75
2023-01-04T23:28:53.190Z,102875.13
2023-01-04T23:31:23.484Z,102877.03
2023-01-04T23:33:57.485Z,102870.97
2023-01-04T23:36:27.707Z,102875.47
2023-01-04T23:39:20.277Z,102874.81
2023-01-04T23:41:47.966Z,102875.16
2023-01-04T23:44:26.600Z,102874.88
2023-01-04T23:47:02.486Z,102863.16
2023-01-04T23:49:32.266Z,102871.41
2023-01-04T23:52:00.688Z,102861.44
2023-01-04T23:54:31.163Z,102861.50
2023-01-04T23:57:04.875Z,102867.00
2023-01-04T23:59:32.235Z,102861.44
